M I D A S
Marine Information and Data Acquisition System
Tripno 2115 of the Zeeleeuw from 2011-06-06 06:29:49 to 2011-06-06 14:13:31
Back to CruiseResearch ActivitiesStationsMapUnderway DataData graphs

EquipmentUnitsComment
TimeDGPSUTC
LatitudeDGPSDM.mWGS84
LongitudeDGPSDM.mWGS84
TemperatureSBE03/SBE38deg celciusITS90
ConductivitySBE21S/mITS90
SalinitySBE21 Practical Salinity Units
ChlorophylAChelsea fluorimeterg/lCalibrated in Aceton
Missing or incorrect values are displayed as -999
Sea surface data collected by the RV Zeeleeuw from 2011-06-06 06:30:19 to 2011-06-06 14:23:41
Time Latitude Longitude Temperature Conductivity Salinity ChlorophylA
2011-06-06 06:31:25 51°13.635 2°56.019 19.2965 0.073349 0.385876 -3.020363
2011-06-06 06:32:25 51°13.635 2°56.019 19.2961 0.073349 0.385902 -3.020363
2011-06-06 06:33:25 51°13.633 2°56.018 19.2641 0.073349 0.385928 -3.020363
2011-06-06 06:34:29 51°13.656 2°55.929 19.3191 0.073349 0.385948 -3.020363
2011-06-06 06:35:29 51°13.683 2°55.814 19.3144 0.073349 0.385967 -3.020363
2011-06-06 06:36:29 51°13.697 2°55.735 19.3435 0.073349 0.385999 -3.020363
2011-06-06 06:37:27 51°13.698 2°55.737 19.3099 0.073349 0.385954 -3.020363
2011-06-06 06:38:29 51°13.707 2°55.723 19.3336 0.073349 0.386025 -3.020363
2011-06-06 06:39:27 51°13.791 2°55.67 19.302 0.073349 0.386045 -3.020363
2011-06-06 06:40:25 51°13.909 2°55.584 19.3037 0.073349 0.386071 -3.020363
2011-06-06 06:41:25 51°14.046 2°55.478 19.2978 0.073349 0.386103 -3.020363
2011-06-06 06:42:25 51°14.178 2°55.381 19.3431 0.073349 0.386129 -3.020363
2011-06-06 06:43:25 51°14.296 2°55.277 17.6174 2.489541 17.104108 -3.020363
2011-06-06 06:44:25 51°14.401 2°55.147 17.427 3.919535 29.504326 -3.020363
2011-06-06 06:45:25 51°14.507 2°55.011 17.3307 3.926791 29.705938 -3.020363
2011-06-06 06:46:25 51°14.658 2°54.838 17.2107 3.915291 29.673448 -3.020363
2011-06-06 06:47:25 51°14.82 2°54.672 17.0043 4.028453 30.764223 -3.020363
2011-06-06 06:48:25 51°14.995 2°54.481 17.006 4.088569 31.373576 -3.020363
2011-06-06 06:49:25 51°15.178 2°54.285 17.0131 4.093959 31.434114 -3.020363
2011-06-06 06:50:25 51°15.346 2°54.062 16.9688 4.084527 31.347746 -3.020363
2011-06-06 06:51:25 51°15.51 2°53.836 16.8715 4.117697 31.688031 -3.020363
2011-06-06 06:52:25 51°15.669 2°53.601 16.8416 4.113241 31.710019 -3.020363
2011-06-06 06:53:26 51°15.85 2°53.409 16.8283 4.110235 31.703233 -3.020363
2011-06-06 06:54:25 51°16.038 2°53.26 16.8332 4.116662 31.764898 -3.020363
2011-06-06 06:55:26 51°16.232 2°53.096 16.8005 4.116455 31.774587 -3.020363
2011-06-06 06:56:25 51°16.418 2°52.931 16.8006 4.115315 31.779439 -3.020363
2011-06-06 06:57:25 51°16.61 2°52.769 16.7649 4.120394 31.8347 -3.020363
2011-06-06 06:58:25 51°16.803 2°52.621 16.7442 4.13045 31.947049 -3.020363
2011-06-06 06:59:25 51°17.009 2°52.567 16.7264 4.144755 32.0802 -3.020363
2011-06-06 07:00:25 51°17.214 2°52.498 16.7047 4.139572 32.049626 -3.020363
2011-06-06 07:01:25 51°17.421 2°52.431 16.6373 4.146933 32.141036 -3.020363
2011-06-06 07:02:25 51°17.625 2°52.373 16.5733 4.154812 32.25664 -3.020363
2011-06-06 07:03:25 51°17.828 2°52.311 16.5575 4.16632 32.404122 -3.020363
2011-06-06 07:04:25 51°18.03 2°52.223 16.5612 4.166942 32.411488 -3.020363
2011-06-06 07:05:25 51°18.232 2°52.139 16.5741 4.164558 32.394719 -3.020363
2011-06-06 07:06:25 51°18.436 2°52.071 16.5356 4.163521 32.379169 -3.020363
2011-06-06 07:07:26 51°18.641 2°51.984 16.4992 4.166424 32.441107 -3.020363
2011-06-06 07:08:25 51°18.84 2°51.909 16.4828 4.166632 32.468552 -3.020363
2011-06-06 07:09:25 51°19.044 2°51.838 16.4677 4.16995 32.506634 -3.020363
2011-06-06 07:10:25 51°19.245 2°51.75 16.4778 4.166943 32.491674 -3.020363
2011-06-06 07:11:26 51°19.449 2°51.672 16.4843 4.158132 32.406445 -3.020363
2011-06-06 07:12:25 51°19.65 2°51.602 16.4914 4.151186 32.346692 -3.020363
2011-06-06 07:13:25 51°19.854 2°51.516 16.4946 4.14932 32.317361 -3.020363
2011-06-06 07:14:25 51°20.058 2°51.431 16.4193 4.149942 32.333252 -3.020363
2011-06-06 07:15:25 51°20.263 2°51.354 16.3448 4.157407 32.469934 -3.020363
2011-06-06 07:16:25 51°20.467 2°51.278 16.281 4.163213 32.56955 -3.020363
2011-06-06 07:17:25 51°20.67 2°51.196 16.2401 4.169745 32.675178 -3.020363
2011-06-06 07:18:25 51°20.874 2°51.104 16.2492 4.170056 32.694576 -3.020363
2011-06-06 07:19:25 51°21.079 2°51.032 16.2727 4.172959 32.709969 -3.020363
2011-06-06 07:20:25 51°21.282 2°50.94 16.2703 4.174825 32.710947 -3.020363
2011-06-06 07:21:25 51°21.49 2°50.871 16.2611 4.174825 32.716286 -3.020363
2011-06-06 07:22:25 51°21.699 2°50.79 16.25 4.174203 32.719521 -3.020363
2011-06-06 07:23:25 51°21.908 2°50.712 16.168 4.177728 32.76575 -3.020363
2011-06-06 07:24:25 51°22.114 2°50.625 16.0986 4.185194 32.9037 -3.020363
2011-06-06 07:25:25 51°22.317 2°50.545 16.0734 4.188097 32.973747 -3.020363
2011-06-06 07:26:25 51°22.524 2°50.476 16.043 4.188098 32.992014 -3.020363
2011-06-06 07:27:25 51°22.725 2°50.389 16.008 4.202716 33.154673 -3.020363
2011-06-06 07:28:25 51°22.928 2°50.304 15.9978 4.210181 33.25531 -3.020363
2011-06-06 07:29:25 51°23.134 2°50.223 15.9635 4.212152 33.286389 -3.020363
2011-06-06 07:30:25 51°23.339 2°50.153 15.9324 4.213707 33.324814 -3.020363
2011-06-06 07:31:25 51°23.543 2°50.061 15.912 4.215781 33.361693 -3.020363
2011-06-06 07:32:25 51°23.748 2°49.99 15.8944 4.215159 33.376837 -3.020363
2011-06-06 07:33:25 51°23.95 2°49.906 15.8721 4.216196 33.403927 -3.020363
2011-06-06 07:34:26 51°24.154 2°49.813 15.8469 4.215989 33.41865 -3.020363
2011-06-06 07:35:25 51°24.355 2°49.734 15.837 4.215575 33.43017 -3.020363
2011-06-06 07:36:25 51°24.558 2°49.658 15.7995 4.214953 33.437789 -3.020363
2011-06-06 07:37:25 51°24.76 2°49.573 15.7729 4.211947 33.437415 -3.020363
2011-06-06 07:38:26 51°24.967 2°49.474 15.7111 4.210185 33.450169 -3.020363
2011-06-06 07:39:25 51°25.167 2°49.382 15.6692 4.204794 33.452915 -3.020363
2011-06-06 07:40:25 51°25.372 2°49.302 15.6458 4.197745 33.422171 -3.020363
2011-06-06 07:41:25 51°25.571 2°49.198 15.6314 4.193702 33.404256 -3.020363
2011-06-06 07:42:25 51°25.735 2°48.968 15.6211 4.191732 33.401311 -3.020363
2011-06-06 07:43:25 51°25.877 2°48.739 15.6007 4.19194 33.410801 -3.020363
2011-06-06 07:44:25 51°25.977 2°48.578 15.555 4.19391 33.445736 -3.020363
2011-06-06 07:45:25 51°26.043 2°48.49 15.5515 4.19982 33.524911 -3.020363
2011-06-06 07:46:25 51°26.09 2°48.512 15.5381 4.203137 33.560094 -3.020363
2011-06-06 07:47:26 51°26.09 2°48.528 15.539 4.20293 33.564541 -3.020363
2011-06-06 07:48:25 51°26.08 2°48.521 15.5382 4.202619 33.563165 -3.020363
2011-06-06 07:49:25 51°26.07 2°48.51 15.5385 4.202204 33.559465 -3.020363
2011-06-06 07:50:25 51°26.061 2°48.495 15.5784 4.202101 33.55784 -3.020363
2011-06-06 07:51:25 51°26.053 2°48.478 15.5702 4.204174 33.555356 -3.020363
2011-06-06 07:52:26 51°26.043 2°48.459 15.565 4.205625 33.555018 -3.020363
2011-06-06 07:53:25 51°26.034 2°48.438 15.5879 4.204796 33.559505 -3.020363
2011-06-06 07:54:25 51°26.024 2°48.416 15.5758 4.206455 33.55752 -3.020363
2011-06-06 07:55:25 51°26.013 2°48.394 15.5797 4.205211 33.559707 -3.020363
2011-06-06 07:56:25 51°26.003 2°48.373 15.5754 4.20604 33.560112 -3.020363
2011-06-06 07:57:25 51°25.993 2°48.351 15.5862 4.206351 33.556596 -3.020363
2011-06-06 07:58:25 51°25.983 2°48.33 15.5852 4.206247 33.55707 -3.020363
2011-06-06 07:59:25 51°25.97 2°48.319 15.5739 4.205832 33.549881 -3.020363
2011-06-06 08:00:25 51°25.994 2°48.401 15.5486 4.202515 33.541962 -3.020363
2011-06-06 08:01:25 51°26.067 2°48.521 15.5457 4.199509 33.527727 -3.020363
2011-06-06 08:02:25 51°26.118 2°48.682 15.5597 4.197643 33.509686 -3.020363
2011-06-06 08:03:25 51°26.152 2°48.759 15.563 4.195465 33.479804 -3.020363
2011-06-06 08:04:25 51°26.15 2°48.783 15.5658 4.194428 33.469168 -3.020363
2011-06-06 08:05:25 51°26.136 2°48.78 15.5712 4.194117 33.463607 -3.020363
2011-06-06 08:06:25 51°26.121 2°48.77 15.5717 4.193184 33.45111 -3.020363
2011-06-06 08:07:25 51°26.108 2°48.757 15.5739 4.192977 33.449262 -3.020363
2011-06-06 08:08:25 51°26.097 2°48.741 15.5764 4.192355 33.440237 -3.020363
2011-06-06 08:09:25 51°26.087 2°48.722 15.5883 4.192251 33.436528 -3.020363
2011-06-06 08:10:25 51°26.076 2°48.7 15.6239 4.193391 33.434158 -3.020363
2011-06-06 08:11:25 51°26.065 2°48.677 15.623 4.196501 33.432639 -3.020363
2011-06-06 08:12:25 51°26.055 2°48.652 15.62 4.195983 33.433587 -3.020363
2011-06-06 08:13:25 51°26.043 2°48.626 15.594 4.195154 33.43733 -3.020363
2011-06-06 08:14:25 51°26.031 2°48.598 15.5805 4.193288 33.435323 -3.020363
2011-06-06 08:15:25 51°26.019 2°48.568 15.5913 4.192355 33.433971 -3.020363
2011-06-06 08:16:25 51°26.008 2°48.538 15.6129 4.192562 33.430946 -3.020363
2011-06-06 08:17:25 51°25.995 2°48.507 15.6379 4.19422 33.426241 -3.020363
2011-06-06 08:18:25 51°25.983 2°48.478 15.6281 4.196397 33.430326 -3.020363
2011-06-06 08:19:25 51°25.971 2°48.449 15.627 4.196086 33.431033 -3.020363
2011-06-06 08:20:25 51°25.959 2°48.471 15.5893 4.195879 33.432664 -3.020363
2011-06-06 08:21:25 51°26.017 2°48.596 15.588 4.192666 33.430478 -3.020363
2011-06-06 08:22:25 51°26.165 2°48.655 15.5849 4.191422 33.420093 -3.020363
2011-06-06 08:23:26 51°26.346 2°48.643 15.5692 4.192562 33.433034 -3.020363
2011-06-06 08:24:25 51°26.434 2°48.714 15.5406 4.19702 33.488784 -3.020363
2011-06-06 08:25:25 51°26.432 2°48.735 15.5329 4.200753 33.542319 -3.020363
2011-06-06 08:26:25 51°26.418 2°48.718 15.5331 4.201271 33.552539 -3.020363
2011-06-06 08:27:25 51°26.401 2°48.702 15.5338 4.201479 33.55299 -3.020363
2011-06-06 08:28:25 51°26.386 2°48.684 15.5421 4.200235 33.542589 -3.020363
2011-06-06 08:29:25 51°26.373 2°48.666 15.5512 4.196917 33.506705 -3.020363
2011-06-06 08:30:25 51°26.358 2°48.646 15.5534 4.195258 33.484932 -3.020363
2011-06-06 08:31:25 51°26.343 2°48.625 15.5583 4.194947 33.479368 -3.020363
2011-06-06 08:32:25 51°26.329 2°48.604 15.563 4.195984 33.485123 -3.020363
2011-06-06 08:33:25 51°26.314 2°48.58 15.5724 4.196191 33.484181 -3.020363
2011-06-06 08:34:25 51°26.301 2°48.556 15.5925 4.197227 33.478778 -3.020363
2011-06-06 08:35:25 51°26.288 2°48.532 15.5891 4.19816 33.473851 -3.020363
2011-06-06 08:36:25 51°26.274 2°48.509 15.5784 4.196916 33.471129 -3.020363
2011-06-06 08:37:25 51°26.259 2°48.485 15.5893 4.196294 33.465587 -3.020363
2011-06-06 08:38:25 51°26.244 2°48.461 15.5983 4.196398 33.461634 -3.020363
2011-06-06 08:39:25 51°26.231 2°48.438 15.578 4.196812 33.460453 -3.020363
2011-06-06 08:40:25 51°26.217 2°48.414 15.5785 4.195361 33.45797 -3.020363
2011-06-06 08:41:26 51°26.203 2°48.39 15.5923 4.194947 33.456365 -3.020363
2011-06-06 08:42:25 51°26.188 2°48.366 15.5928 4.195776 33.453308 -3.020363
2011-06-06 08:43:25 51°26.173 2°48.341 15.6108 4.195776 33.450524 -3.020363
2011-06-06 08:44:25 51°26.158 2°48.315 15.6079 4.19702 33.447684 -3.020363
2011-06-06 08:45:25 51°26.142 2°48.291 15.6191 4.196294 33.446789 -3.020363
2011-06-06 08:46:25 51°26.127 2°48.267 15.617 4.196708 33.440742 -3.020363
2011-06-06 08:47:25 51°26.11 2°48.242 15.6074 4.196605 33.44121 -3.020363
2011-06-06 08:48:25 51°26.091 2°48.228 15.588 4.195154 33.4422 -3.020363
2011-06-06 08:49:25 51°26.037 2°48.258 15.5814 4.193599 33.438789 -3.020363
2011-06-06 08:50:25 51°25.897 2°48.176 15.5923 4.191836 33.424482 -3.020363
2011-06-06 08:51:25 51°25.804 2°47.885 15.5969 4.189555 33.395826 -3.020363
2011-06-06 08:52:25 51°25.699 2°47.548 15.5962 4.190074 33.396967 -3.020363
2011-06-06 08:53:25 51°25.586 2°47.215 15.5948 4.192147 33.417514 -3.020363
2011-06-06 08:54:25 51°25.474 2°46.878 15.5886 4.192147 33.417514 -3.020363
2011-06-06 08:55:25 51°25.364 2°46.541 15.5813 4.194221 33.441545 -3.020363
2011-06-06 08:56:25 51°25.25 2°46.203 15.5659 4.196191 33.46536 -3.020363
2011-06-06 08:57:25 51°25.138 2°45.864 15.5535 4.200442 33.518585 -3.020363
2011-06-06 08:58:25 51°25.022 2°45.528 15.5538 4.201271 33.532265 -3.020363
2011-06-06 08:59:25 51°24.911 2°45.189 15.5458 4.201893 33.538511 -3.020363
2011-06-06 09:00:25 51°24.802 2°44.846 15.5346 4.203967 33.564695 -3.020363
2011-06-06 09:01:25 51°24.688 2°44.504 15.5381 4.206663 33.598544 -3.020363
2011-06-06 09:02:25 51°24.575 2°44.168 15.5359 4.204382 33.585193 -3.020363
2011-06-06 09:03:25 51°24.458 2°43.829 15.5261 4.205626 33.601202 -3.020363
2011-06-06 09:04:26 51°24.341 2°43.484 15.5097 4.209359 33.646452 -3.020363
2011-06-06 09:05:25 51°24.231 2°43.145 15.4969 4.213506 33.69193 -3.020363
2011-06-06 09:06:25 51°24.121 2°42.8 15.4627 4.218794 33.751861 -3.020363
2011-06-06 09:07:25 51°24.019 2°42.454 15.4081 4.226778 33.861435 -3.020363
2011-06-06 09:08:25 51°23.937 2°42.095 15.3849 4.232273 33.951825 -3.020363
2011-06-06 09:09:25 51°23.86 2°41.734 15.3801 4.234244 33.985148 -3.020363
2011-06-06 09:10:25 51°23.782 2°41.371 15.3741 4.23497 34.000208 -3.020363
2011-06-06 09:11:25 51°23.717 2°41.004 15.3612 4.235281 34.006564 -3.020363
2011-06-06 09:12:25 51°23.668 2°40.634 15.3571 4.236421 34.023219 -3.020363
2011-06-06 09:13:26 51°23.622 2°40.258 15.3686 4.237769 34.039602 -3.020363
2011-06-06 09:14:25 51°23.57 2°39.896 15.3816 4.237562 34.028464 -3.020363
2011-06-06 09:15:25 51°23.529 2°39.557 15.3846 4.238184 34.024062 -3.020363
2011-06-06 09:16:25 51°23.517 2°39.24 15.3914 4.23922 34.029088 -3.020363
2011-06-06 09:17:25 51°23.507 2°38.946 15.376 4.242124 34.055139 -3.020363
2011-06-06 09:18:25 51°23.494 2°38.676 15.366 4.242953 34.072579 -3.020363
2011-06-06 09:19:25 51°23.475 2°38.412 15.319 4.244509 34.095832 -3.020363
2011-06-06 09:20:25 51°23.457 2°38.151 15.2901 4.248657 34.175364 -3.020363
2011-06-06 09:21:25 51°23.436 2°37.891 15.2822 4.249901 34.208824 -3.020363
2011-06-06 09:22:25 51°23.411 2°37.644 15.2469 4.250213 34.219534 -3.020363
2011-06-06 09:23:25 51°23.386 2°37.42 15.2279 4.251457 34.246574 -3.020363
2011-06-06 09:24:25 51°23.37 2°37.203 15.2203 4.250731 34.25661 -3.020363
2011-06-06 09:25:25 51°23.355 2°36.988 15.2215 4.250732 34.260215 -3.020363
2011-06-06 09:26:25 51°23.338 2°36.774 15.2299 4.250628 34.257838 -3.020363
2011-06-06 09:27:25 51°23.317 2°36.56 15.2386 4.251042 34.253645 -3.020363
2011-06-06 09:28:25 51°23.292 2°36.339 15.2417 4.249384 34.243744 -3.020363
2011-06-06 09:29:25 51°23.23 2°36.111 15.2609 4.249902 34.243371 -3.020363
2011-06-06 09:30:25 51°23.092 2°35.912 15.2702 4.250005 34.23422 -3.020363
2011-06-06 09:31:25 51°22.896 2°35.714 15.2781 4.249902 34.221051 -3.020363
2011-06-06 09:32:25 51°22.687 2°35.537 15.2916 4.251146 34.226496 -3.020363
2011-06-06 09:33:25 51°22.467 2°35.385 15.3005 4.251664 34.22253 -3.020363
2011-06-06 09:34:25 51°22.248 2°35.231 15.3271 4.252493 34.219209 -3.020363
2011-06-06 09:35:25 51°22.02 2°35.105 15.3504 4.25156 34.190704 -3.020363
2011-06-06 09:36:25 51°21.794 2°34.973 15.358 4.253011 34.18725 -3.020363
2011-06-06 09:37:25 51°21.567 2°34.834 15.379 4.253633 34.181368 -3.020363
2011-06-06 09:38:25 51°21.364 2°34.625 15.3841 4.254255 34.171192 -3.020363
2011-06-06 09:39:25 51°21.203 2°34.326 15.3941 4.255499 34.175203 -3.020363
2011-06-06 09:40:25 51°21.078 2°33.987 15.4064 4.255603 34.166826 -3.020363
2011-06-06 09:41:25 51°20.978 2°33.624 15.414 4.255914 34.1596 -3.020363
2011-06-06 09:42:25 51°20.878 2°33.259 15.4222 4.254566 34.143215 -3.020363
2011-06-06 09:43:25 51°20.772 2°32.9 15.4298 4.257572 34.158751 -3.020363
2011-06-06 09:44:25 51°20.67 2°32.536 15.4355 4.25778 34.158467 -3.020363
2011-06-06 09:45:25 51°20.597 2°32.168 15.444 4.258194 34.157183 -3.020363
2011-06-06 09:46:25 51°20.541 2°31.843 15.4413 4.25892 34.160833 -3.020363
2011-06-06 09:47:25 51°20.47 2°31.483 15.4412 4.259646 34.169487 -3.020363
2011-06-06 09:48:25 51°20.401 2°31.1 15.4446 4.260579 34.176427 -3.020363
2011-06-06 09:49:25 51°20.339 2°30.717 15.4342 4.260579 34.169277 -3.020363
2011-06-06 09:49:35 51°30.182 2°32.367 19.2783 0.073349 0.385431 -3.020363
2011-06-06 09:50:19 51°20.294 2°30.426 15.4003 4.26566 34.229878 -3.020363
2011-06-06 09:51:19 51°20.204 2°30.173 15.3435 4.271364 34.324884 -3.020363
2011-06-06 09:52:19 51°20.108 2°29.994 15.3347 4.274267 34.381971 -3.020363
2011-06-06 09:53:20 51°20.034 2°29.954 15.3419 4.27406 34.383713 -3.020363
2011-06-06 09:54:19 51°20.033 2°29.999 15.3566 4.27209 34.346527 -3.020363
2011-06-06 09:55:20 51°20.071 2°30.079 15.3462 4.271675 34.333437 -3.020363
2011-06-06 09:56:20 51°20.074 2°30.092 15.3456 4.272297 34.347671 -3.020363
2011-06-06 09:57:20 51°20.077 2°30.07 15.3589 4.272193 34.34818 -3.020363
2011-06-06 09:58:20 51°20.072 2°30.034 15.3659 4.270534 34.320308 -3.020363
2011-06-06 09:59:20 51°20.063 2°29.995 15.4157 4.27126 34.313882 -3.020363
2011-06-06 10:00:20 51°20.052 2°29.953 15.3961 4.274681 34.310116 -3.020363
2011-06-06 10:01:20 51°20.039 2°29.901 15.3688 4.272815 34.324978 -3.020363
2011-06-06 10:02:20 51°20.024 2°29.858 15.363 4.271986 34.32328 -3.020363
2011-06-06 10:03:19 51°20.009 2°29.815 15.3652 4.271364 34.321287 -3.020363
2011-06-06 10:04:20 51°19.99 2°29.772 15.3601 4.271156 34.326618 -3.020363
2011-06-06 10:05:19 51°19.971 2°29.732 15.3615 4.270949 34.326194 -3.020363
2011-06-06 10:06:20 51°19.95 2°29.69 15.36 4.270534 34.319588 -3.020363
2011-06-06 10:07:19 51°19.932 2°29.67 15.3639 4.270845 34.325262 -3.020363
2011-06-06 10:08:20 51°19.949 2°29.748 15.3622 4.270949 34.324755 -3.020363
2011-06-06 10:09:19 51°19.996 2°29.87 15.3588 4.270845 34.321664 -3.020363
2011-06-06 10:10:20 51°20 2°30.027 15.3564 4.271467 34.332293 -3.020363
2011-06-06 10:11:19 51°20.049 2°30.123 15.3555 4.271467 34.335173 -3.020363
2011-06-06 10:12:20 51°20.065 2°30.114 15.3658 4.269186 34.306755 -3.020363
2011-06-06 10:13:20 51°20.06 2°30.091 15.3666 4.268979 34.300578 -3.020363
2011-06-06 10:14:20 51°20.052 2°30.062 15.364 4.268979 34.301297 -3.020363
2011-06-06 10:15:20 51°20.04 2°30.021 15.398 4.268979 34.303454 -3.020363
2011-06-06 10:16:20 51°20.027 2°29.982 15.3708 4.270119 34.297886 -3.020363
2011-06-06 10:17:20 51°20.01 2°29.933 15.3705 4.268979 34.296983 -3.020363
2011-06-06 10:18:19 51°19.993 2°29.881 15.3681 4.268357 34.292113 -3.020363
2011-06-06 10:19:20 51°19.976 2°29.833 15.3651 4.26846 34.29592 -3.020363
2011-06-06 10:20:19 51°19.958 2°29.784 15.3614 4.26929 34.297622 -3.020363
2011-06-06 10:21:20 51°19.939 2°29.738 15.3572 4.269912 34.316875 -3.020363
2011-06-06 10:22:19 51°19.92 2°29.696 15.3569 4.269705 34.315731 -3.020363
2011-06-06 10:23:20 51°19.899 2°29.656 15.373 4.270223 34.323269 -3.020363
2011-06-06 10:24:19 51°19.878 2°29.619 15.3694 4.271364 34.31769 -3.020363
2011-06-06 10:25:20 51°19.857 2°29.58 15.3632 4.270949 34.318999 -3.020363
2011-06-06 10:26:20 51°19.835 2°29.544 15.3553 4.27043 34.317937 -3.020363
2011-06-06 10:27:19 51°19.814 2°29.516 15.359 4.270223 34.321829 -3.020363
2011-06-06 10:28:20 51°19.832 2°29.592 15.366 4.270119 34.318739 -3.020363
2011-06-06 10:29:19 51°19.903 2°29.721 15.3687 4.268668 34.299221 -3.020363
2011-06-06 10:30:20 51°19.982 2°29.861 15.3672 4.269082 34.300072 -3.020363
2011-06-06 10:31:20 51°20.043 2°29.976 15.3664 4.269082 34.30079 -3.020363
2011-06-06 10:32:20 51°20.043 2°30.003 15.3673 4.269186 34.30316 -3.020363
2011-06-06 10:33:20 51°20.029 2°29.998 15.3647 4.268875 34.299646 -3.020363
2011-06-06 10:34:20 51°20.015 2°29.978 15.3644 4.268875 34.301803 -3.020363
2011-06-06 10:35:20 51°20 2°29.939 15.3669 4.268668 34.300659 -3.020363
2011-06-06 10:36:20 51°19.984 2°29.896 15.3947 4.269704 34.297035 -3.020363
2011-06-06 10:37:20 51°19.969 2°29.853 15.395 4.271363 34.297566 -3.020363
2011-06-06 10:38:19 51°19.954 2°29.813 15.3845 4.270741 34.290543 -3.020363
2011-06-06 10:39:20 51°19.937 2°29.771 15.3859 4.268979 34.290516 -3.020363
2011-06-06 10:40:20 51°19.922 2°29.746 15.3795 4.269082 34.292884 -3.020363
2011-06-06 10:41:20 51°19.912 2°29.736 15.3706 4.268771 34.292964 -3.020363
2011-06-06 10:42:20 51°19.909 2°29.724 15.3718 4.267734 34.286524 -3.020363
2011-06-06 10:43:20 51°19.906 2°29.714 15.372 4.267631 34.285592 -3.020363
2011-06-06 10:44:20 51°19.905 2°29.702 15.3727 4.267631 34.284155 -3.020363
2011-06-06 10:45:20 51°19.904 2°29.694 15.3755 4.267423 34.280856 -3.020363
2011-06-06 10:46:20 51°19.902 2°29.684 15.377 4.267423 34.278701 -3.020363
2011-06-06 10:47:20 51°19.934 2°29.711 15.3802 4.267112 34.275907 -3.020363
2011-06-06 10:48:20 51°19.98 2°29.86 15.3842 4.267423 34.272955 -3.020363
2011-06-06 10:49:20 51°20.019 2°30.004 15.382 4.267631 34.273382 -3.020363
2011-06-06 10:50:20 51°20.046 2°30.043 15.379 4.267423 34.274392 -3.020363
2011-06-06 10:51:20 51°20.058 2°30.031 15.3791 4.26649 34.267447 -3.020363
2011-06-06 10:52:19 51°20.06 2°30.008 15.3765 4.26649 34.268883 -3.020363
2011-06-06 10:53:20 51°20.051 2°29.981 15.3844 4.26649 34.268883 -3.020363
2011-06-06 10:54:20 51°20.041 2°29.955 15.3792 4.266905 34.266864 -3.020363
2011-06-06 10:55:20 51°20.031 2°29.933 15.3762 4.264727 34.252334 -3.020363
2011-06-06 10:56:20 51°20.028 2°29.92 15.3782 4.264831 34.253983 -3.020363
2011-06-06 10:57:20 51°20.035 2°29.915 15.3774 4.264209 34.247678 -3.020363
2011-06-06 10:58:20 51°20.047 2°29.911 15.3768 4.264727 34.253051 -3.020363
2011-06-06 10:59:19 51°20.07 2°29.955 15.3791 4.264312 34.247892 -3.020363
2011-06-06 11:00:20 51°20.037 2°30.055 15.3777 4.26369 34.241587 -3.020363
2011-06-06 11:01:20 51°19.987 2°30.207 15.3751 4.26369 34.242305 -3.020363
2011-06-06 11:02:20 51°19.919 2°30.378 15.3743 4.263276 34.240015 -3.020363
2011-06-06 11:03:20 51°19.816 2°30.53 15.3685 4.263172 34.246977 -3.020363
2011-06-06 11:04:20 51°19.719 2°30.695 15.3696 4.262757 34.243252 -3.020363
2011-06-06 11:05:19 51°19.638 2°30.861 15.371 4.262446 34.240458 -3.020363
2011-06-06 11:06:20 51°19.557 2°31.027 15.5392 4.260165 34.21495 -3.020363
2011-06-06 11:07:20 51°19.48 2°31.186 15.6435 4.253837 33.988029 -3.020363
2011-06-06 11:08:19 51°19.399 2°31.339 15.6309 4.255495 33.946993 -3.020363
2011-06-06 11:09:19 51°19.319 2°31.497 15.6234 4.25591 33.955633 -3.020363
2011-06-06 11:10:20 51°19.233 2°31.658 15.5941 4.260888 34.022668 -3.020363
2011-06-06 11:11:20 51°19.151 2°31.817 15.6111 4.25954 34.019131 -3.020363
2011-06-06 11:12:19 51°19.073 2°31.974 15.6324 4.259332 34.001708 -3.020363
2011-06-06 11:13:20 51°18.992 2°32.155 15.617 4.26068 34.001006 -3.020363
2011-06-06 11:14:19 51°18.915 2°32.339 15.6299 4.262339 34.032794 -3.020363
2011-06-06 11:15:20 51°18.838 2°32.533 15.6532 4.262443 34.016025 -3.020363
2011-06-06 11:16:20 51°18.764 2°32.727 15.6948 4.262961 33.992377 -3.020363
2011-06-06 11:17:20 51°18.687 2°32.922 15.712 4.263997 33.97339 -3.020363
2011-06-06 11:18:20 51°18.615 2°33.122 15.7151 4.264515 33.968138 -3.020363
2011-06-06 11:19:20 51°18.546 2°33.324 15.7281 4.263271 33.962696 -3.020363
2011-06-06 11:20:20 51°18.469 2°33.534 15.7446 4.262856 33.947731 -3.020363
2011-06-06 11:21:20 51°18.375 2°33.794 15.7628 4.262649 33.931104 -3.020363
2011-06-06 11:22:20 51°18.257 2°34.054 15.7812 4.260678 33.898113 -3.020363
2011-06-06 11:23:19 51°18.119 2°34.293 15.8126 4.259952 33.873409 -3.020363
2011-06-06 11:24:20 51°17.981 2°34.543 15.828 4.260574 33.856505 -3.020363
2011-06-06 11:25:20 51°17.848 2°34.791 15.8414 4.260574 33.8446 -3.020363
2011-06-06 11:26:20 51°17.722 2°35.042 15.8495 4.259122 33.819819 -3.020363
2011-06-06 11:27:20 51°17.594 2°35.292 15.8558 4.255596 33.781546 -3.020363
2011-06-06 11:28:20 51°17.464 2°35.545 15.8593 4.253626 33.75988 -3.020363
2011-06-06 11:29:20 51°17.332 2°35.799 15.8655 4.252693 33.747417 -3.020363
2011-06-06 11:30:20 51°17.191 2°36.048 15.8646 4.25176 33.737049 -3.020363
2011-06-06 11:31:20 51°17.04 2°36.284 15.8712 4.250308 33.723479 -3.020363
2011-06-06 11:32:20 51°16.883 2°36.504 15.9276 4.236933 33.586163 -3.020363
2011-06-06 11:33:20 51°16.69 2°36.66 15.9633 4.225838 33.445797 -3.020363
2011-06-06 11:34:20 51°16.528 2°36.792 15.9907 4.227082 33.42855 -3.020363
2011-06-06 11:35:20 51°16.513 2°36.872 16.0031 4.225526 33.398991 -3.020363
2011-06-06 11:36:20 51°16.538 2°36.868 16.0056 4.225319 33.388914 -3.020363
2011-06-06 11:37:20 51°16.568 2°36.779 16.0111 4.224904 33.381132 -3.020363
2011-06-06 11:38:19 51°16.604 2°36.722 16.0062 4.225111 33.379529 -3.020363
2011-06-06 11:39:19 51°16.619 2°36.765 16.0034 4.225008 33.384107 -3.020363
2011-06-06 11:40:20 51°16.639 2°36.83 15.9996 4.225111 33.385709 -3.020363
2011-06-06 11:41:20 51°16.646 2°36.851 15.9991 4.224489 33.382965 -3.020363
2011-06-06 11:42:19 51°16.625 2°36.831 15.9961 4.224386 33.379989 -3.020363
2011-06-06 11:43:19 51°16.598 2°36.803 16.0009 4.223867 33.378159 -3.020363
2011-06-06 11:44:20 51°16.569 2°36.772 15.9994 4.223763 33.377931 -3.020363
2011-06-06 11:45:20 51°16.539 2°36.74 15.9995 4.22366 33.376328 -3.020363
2011-06-06 11:46:20 51°16.51 2°36.708 16.0095 4.22366 33.374268 -3.020363
2011-06-06 11:47:20 51°16.482 2°36.676 16.0182 4.224696 33.373123 -3.020363
2011-06-06 11:48:20 51°16.453 2°36.646 16.0207 4.224904 33.372894 -3.020363
2011-06-06 11:49:20 51°16.426 2°36.617 16.0181 4.2248 33.371292 -3.020363
2011-06-06 11:50:20 51°16.398 2°36.588 16.0157 4.2248 33.370606 -3.020363
2011-06-06 11:51:20 51°16.371 2°36.558 16.0004 4.224178 33.362372 -3.020363
2011-06-06 11:52:20 51°16.343 2°36.532 16.0082 4.223245 33.357568 -3.020363
2011-06-06 11:53:20 51°16.316 2°36.506 16.0035 4.223452 33.356654 -3.020363
2011-06-06 11:54:20 51°16.29 2°36.48 15.9977 4.223348 33.358483 -3.020363
2011-06-06 11:55:20 51°16.263 2°36.455 16.0123 4.222623 33.354822 -3.020363
2011-06-06 11:56:20 51°16.248 2°36.463 16.0157 4.223659 33.352311 -3.020363
2011-06-06 11:57:20 51°16.296 2°36.506 16.0119 4.223245 33.347967 -3.020363
2011-06-06 11:58:20 51°16.381 2°36.551 16.0058 4.22283 33.345679 -3.020363
2011-06-06 11:59:20 51°16.476 2°36.601 15.9939 4.223141 33.355281 -3.020363
2011-06-06 12:00:20 51°16.57 2°36.655 15.9706 4.22283 33.3642 -3.020363
2011-06-06 12:01:20 51°16.659 2°36.723 15.9609 4.222934 33.379537 -3.020363
2011-06-06 12:02:20 51°16.689 2°36.851 15.9556 4.222831 33.38618 -3.020363
2011-06-06 12:03:20 51°16.656 2°36.912 15.9564 4.221587 33.379314 -3.020363
2011-06-06 12:04:20 51°16.627 2°36.919 15.9554 4.220964 33.373131 -3.020363
2011-06-06 12:05:20 51°16.602 2°36.912 15.9582 4.220653 33.370384 -3.020363
2011-06-06 12:06:20 51°16.577 2°36.898 15.9763 4.22055 33.368094 -3.020363
2011-06-06 12:07:19 51°16.552 2°36.881 15.9935 4.222416 33.366031 -3.020363
2011-06-06 12:08:20 51°16.526 2°36.86 15.9963 4.224593 33.366031 -3.020363
2011-06-06 12:09:20 51°16.5 2°36.838 15.9699 4.224385 33.371064 -3.020363
2011-06-06 12:10:20 51°16.472 2°36.815 15.9597 4.220964 33.366948 -3.020363
2011-06-06 12:11:20 51°16.444 2°36.792 15.9719 4.220342 33.345666 -3.020363
2011-06-06 12:12:19 51°16.419 2°36.768 15.9622 4.220135 33.356189 -3.020363
2011-06-06 12:13:19 51°16.393 2°36.748 15.9678 4.219513 33.352069 -3.020363
2011-06-06 12:14:20 51°16.4 2°36.771 15.9754 4.21972 33.347722 -3.020363
2011-06-06 12:15:20 51°16.45 2°36.728 15.9656 4.219616 33.34818 -3.020363
2011-06-06 12:16:20 51°16.518 2°36.707 15.9589 4.22055 33.362599 -3.020363
2011-06-06 12:17:20 51°16.57 2°36.779 15.953 4.220342 33.366949 -3.020363
2011-06-06 12:18:20 51°16.626 2°36.818 15.9512 4.220135 33.36924 -3.020363
2011-06-06 12:19:19 51°16.666 2°36.825 15.9477 4.220446 33.373362 -3.020363
2011-06-06 12:20:20 51°16.662 2°36.83 15.9463 4.22055 33.375653 -3.020363
2011-06-06 12:21:20 51°16.648 2°36.836 15.9458 4.220239 33.37428 -3.020363
2011-06-06 12:22:19 51°16.63 2°36.838 15.9455 4.220342 33.375883 -3.020363
2011-06-06 12:23:20 51°16.612 2°36.838 15.9485 4.22055 33.374966 -3.020363
2011-06-06 12:24:20 51°16.593 2°36.836 15.9457 4.220239 33.372905 -3.020363
2011-06-06 12:25:20 51°16.574 2°36.834 15.9494 4.220031 33.373135 -3.020363
2011-06-06 12:26:20 51°16.554 2°36.831 15.9489 4.220135 33.372676 -3.020363
2011-06-06 12:27:19 51°16.534 2°36.83 15.9505 4.220446 33.370614 -3.020363
2011-06-06 12:28:20 51°16.516 2°36.828 15.9487 4.220342 33.371759 -3.020363
2011-06-06 12:29:20 51°16.497 2°36.826 15.9586 4.220342 33.369698 -3.020363
2011-06-06 12:30:20 51°16.478 2°36.828 15.9507 4.22055 33.370842 -3.020363
2011-06-06 12:31:20 51°16.461 2°36.83 15.9494 4.219824 33.368554 -3.020363
2011-06-06 12:32:20 51°16.444 2°36.834 15.9514 4.219824 33.36718 -3.020363
2011-06-06 12:33:20 51°16.425 2°36.836 15.9655 4.220135 33.364431 -3.020363
2011-06-06 12:34:20 51°16.406 2°36.834 15.9917 4.221794 33.363971 -3.020363
2011-06-06 12:35:20 51°16.392 2°36.839 15.9705 4.223452 33.366946 -3.020363
2011-06-06 12:36:19 51°16.436 2°36.818 15.9533 4.220964 33.369009 -3.020363
2011-06-06 12:37:20 51°16.523 2°36.712 15.9495 4.220342 33.369011 -3.020363
2011-06-06 12:38:20 51°16.604 2°36.719 15.9388 4.220964 33.376568 -3.020363
2011-06-06 12:39:20 51°16.629 2°36.796 15.9358 4.220861 33.385965 -3.020363
2011-06-06 12:40:19 51°16.629 2°36.823 15.9359 4.220654 33.386196 -3.020363
2011-06-06 12:41:20 51°16.619 2°36.835 15.9352 4.22055 33.385967 -3.020363
2011-06-06 12:42:19 51°16.603 2°36.837 15.9591 4.219824 33.378178 -3.020363
2011-06-06 12:43:20 51°16.581 2°36.834 15.945 4.222934 33.37885 -3.020363
2011-06-06 12:44:20 51°16.556 2°36.828 15.9374 4.220343 33.378633 -3.020363
2011-06-06 12:45:20 51°16.532 2°36.822 15.9436 4.220032 33.379323 -3.020363
2011-06-06 12:46:20 51°16.508 2°36.818 15.9476 4.220964 33.376568 -3.020363
2011-06-06 12:47:20 51°16.484 2°36.814 15.9609 4.220757 33.37886 -3.020363
2011-06-06 12:48:19 51°16.462 2°36.812 15.9719 4.222416 33.377019 -3.020363
2011-06-06 12:49:20 51°16.464 2°36.917 15.9496 4.222001 33.376105 -3.020363
2011-06-06 12:50:19 51°16.518 2°37.116 15.9488 4.220135 33.371302 -3.020363
2011-06-06 12:51:20 51°16.575 2°37.369 15.9532 4.21972 33.366951 -3.020363
2011-06-06 12:52:19 51°16.588 2°37.571 15.9644 4.218995 33.357105 -3.020363
2011-06-06 12:53:20 51°16.586 2°37.65 15.9736 4.214329 33.304239 -3.020363
2011-06-06 12:54:20 51°16.569 2°37.666 15.9889 4.213499 33.291435 -3.020363
2011-06-06 12:55:20 51°16.55 2°37.672 16.0217 4.215573 33.289873 -3.020363
2011-06-06 12:56:20 51°16.53 2°37.674 15.9951 4.216505 33.283732 -3.020363
2011-06-06 12:57:20 51°16.509 2°37.672 15.9698 4.214121 33.29076 -3.020363
2011-06-06 12:58:20 51°16.488 2°37.669 15.9694 4.212981 33.291655 -3.020363
2011-06-06 12:59:20 51°16.466 2°37.667 15.9607 4.212877 33.294166 -3.020363
2011-06-06 13:00:20 51°16.446 2°37.665 15.9588 4.212255 33.290045 -3.020363
2011-06-06 13:01:20 51°16.424 2°37.664 15.9561 4.213396 33.301485 -3.020363
2011-06-06 13:02:19 51°16.403 2°37.663 15.9722 4.213603 33.299203 -3.020363
2011-06-06 13:03:19 51°16.382 2°37.664 15.9738 4.213603 33.295776 -3.020363
2011-06-06 13:04:19 51°16.362 2°37.665 15.9776 4.21381 33.296236 -3.020363
2011-06-06 13:05:20 51°16.341 2°37.669 15.963 4.213914 33.299207 -3.020363
2011-06-06 13:06:20 51°16.322 2°37.675 15.9731 4.213085 33.296682 -3.020363
2011-06-06 13:07:19 51°16.302 2°37.682 15.9672 4.214536 33.299901 -3.020363
2011-06-06 13:08:20 51°16.289 2°37.72 15.9722 4.214225 33.30538 -3.020363
2011-06-06 13:09:19 51°16.343 2°37.753 15.9742 4.21464 33.304243 -3.020363
2011-06-06 13:10:19 51°16.435 2°37.701 15.9785 4.214225 33.295786 -3.020363
2011-06-06 13:11:20 51°16.541 2°37.626 15.9771 4.213396 33.28778 -3.020363
2011-06-06 13:12:20 51°16.611 2°37.56 15.9715 4.213396 33.28778 -3.020363
2011-06-06 13:13:19 51°16.639 2°37.578 15.965 4.212981 33.288915 -3.020363
2011-06-06 13:14:20 51°16.631 2°37.603 15.9737 4.214329 33.307667 -3.020363
2011-06-06 13:15:20 51°16.62 2°37.623 15.9887 4.214432 33.299671 -3.020363
2011-06-06 13:16:19 51°16.604 2°37.637 15.9983 4.215676 33.288049 -3.020363
2011-06-06 13:17:20 51°16.585 2°37.646 15.9718 4.214847 33.289632 -3.020363
2011-06-06 13:18:19 51°16.567 2°37.65 15.9672 4.212981 33.290285 -3.020363
2011-06-06 13:19:20 51°16.548 2°37.654 15.9846 4.21267 33.29165 -3.020363
2011-06-06 13:20:20 51°16.529 2°37.659 15.9699 4.214432 33.293505 -3.020363
2011-06-06 13:21:20 51°16.511 2°37.665 15.9662 4.213085 33.2912 -3.020363
2011-06-06 13:22:20 51°16.493 2°37.674 15.967 4.213188 33.294856 -3.020363
2011-06-06 13:23:20 51°16.486 2°37.778 15.9719 4.213396 33.29052 -3.020363
2011-06-06 13:24:20 51°16.46 2°38.049 15.9796 4.213188 33.28869 -3.020363
2011-06-06 13:25:19 51°16.369 2°38.37 15.9833 4.213396 33.285041 -3.020363
2011-06-06 13:26:20 51°16.266 2°38.7 16.0039 4.212981 33.276588 -3.020363
2011-06-06 13:27:19 51°16.163 2°39.019 16.0257 4.206967 33.20373 -3.020363
2011-06-06 13:28:19 51°16.049 2°39.334 16.0754 4.205308 33.174104 -3.020363
2011-06-06 13:29:20 51°15.943 2°39.65 16.1991 4.179388 32.861484 -3.020363
2011-06-06 13:30:20 51°15.837 2°39.952 16.199 4.173374 32.755716 -3.020363
2011-06-06 13:31:20 51°15.741 2°40.269 16.1933 4.174515 32.76571 -3.020363
2011-06-06 13:32:20 51°15.641 2°40.584 16.1855 4.176588 32.789242 -3.020363
2011-06-06 13:33:19 51°15.541 2°40.898 16.1752 4.178351 32.810728 -3.020363
2011-06-06 13:34:19 51°15.449 2°41.225 16.1632 4.18001 32.833328 -3.020363
2011-06-06 13:35:19 51°15.382 2°41.565 16.1633 4.179595 32.845144 -3.020363
2011-06-06 13:36:19 51°15.323 2°41.914 16.1678 4.180632 32.861639 -3.020363
2011-06-06 13:37:19 51°15.263 2°42.267 16.1616 4.180839 32.862113 -3.020363
2011-06-06 13:38:19 51°15.213 2°42.622 16.1747 4.180736 32.860531 -3.020363
2011-06-06 13:39:19 51°15.169 2°42.979 16.1924 4.179595 32.840439 -3.020363
2011-06-06 13:40:19 51°15.123 2°43.336 16.2003 4.177936 32.813131 -3.020363
2011-06-06 13:41:20 51°15.111 2°43.702 16.2135 4.176174 32.789629 -3.020363
2011-06-06 13:42:19 51°15.118 2°44.059 16.2394 4.173685 32.755095 -3.020363
2011-06-06 13:43:19 51°15.107 2°44.426 16.2757 4.167776 32.679951 -3.020363
2011-06-06 13:44:19 51°15.081 2°44.79 16.318 4.16197 32.596529 -3.020363
2011-06-06 13:45:19 51°15.061 2°45.155 16.3415 4.160829 32.557349 -3.020363
2011-06-06 13:46:20 51°15.043 2°45.524 16.3716 4.162902 32.562192 -3.020363
2011-06-06 13:47:19 51°15.023 2°45.881 16.4161 4.164871 32.545597 -3.020363
2011-06-06 13:48:19 51°14.998 2°46.245 16.4541 4.165182 32.51459 -3.020363
2011-06-06 13:49:19 51°14.961 2°46.602 16.486 4.164041 32.47695 -3.020363
2011-06-06 13:50:19 51°14.869 2°46.936 16.5163 4.162071 32.434138 -3.020363
2011-06-06 13:51:19 51°14.775 2°47.267 16.5399 4.160723 32.398118 -3.020363
2011-06-06 13:52:19 51°14.752 2°47.628 16.5386 4.163729 32.411776 -3.020363
2011-06-06 13:53:19 51°14.773 2°47.999 16.5439 4.164455 32.419394 -3.020363
2011-06-06 13:54:19 51°14.789 2°48.369 16.5468 4.163418 32.405794 -3.020363
2011-06-06 13:55:19 51°14.802 2°48.741 16.5686 4.162174 32.38843 -3.020363
2011-06-06 13:56:19 51°14.805 2°49.113 16.6001 4.158338 32.334835 -3.020363
2011-06-06 13:57:20 51°14.808 2°49.486 16.6432 4.151806 32.251427 -3.020363
2011-06-06 13:58:20 51°14.812 2°49.855 16.6698 4.141543 32.130678 -3.020363
2011-06-06 13:59:19 51°14.809 2°50.214 16.6747 4.136671 32.071036 -3.020363
2011-06-06 14:00:19 51°14.813 2°50.577 16.6897 4.127445 31.984796 -3.020363
2011-06-06 14:01:19 51°14.816 2°50.942 16.6984 4.124231 31.948645 -3.020363
2011-06-06 14:02:19 51°14.817 2°51.304 16.7031 4.122572 31.929808 -3.020363
2011-06-06 14:03:19 51°14.823 2°51.666 16.7104 4.119463 31.897158 -3.020363
2011-06-06 14:04:19 51°14.826 2°52.032 16.7352 4.113243 31.834468 -3.020363
2011-06-06 14:05:20 51°14.83 2°52.404 16.7344 4.106609 31.765054 -3.020363
2011-06-06 14:06:20 51°14.836 2°52.771 16.7503 4.105883 31.751766 -3.020363
2011-06-06 14:07:20 51°14.841 2°53.141 16.7604 4.104846 31.735802 -3.020363
2011-06-06 14:08:19 51°14.844 2°53.505 16.7756 4.104535 31.724188 -3.020363
2011-06-06 14:09:19 51°14.839 2°53.878 16.7925 4.10412 31.703404 -3.020363
2011-06-06 14:10:19 51°14.825 2°54.247 16.8047 4.101736 31.67332 -3.020363
2011-06-06 14:11:19 51°14.745 2°54.588 16.8013 4.101529 31.664538 -3.020363
2011-06-06 14:12:19 51°14.615 2°54.872 16.823 4.099352 31.64008 -3.020363
2011-06-06 14:13:19 51°14.446 2°55.078 16.8455 4.099663 31.626884 -3.020363
2011-06-06 14:14:20 51°14.289 2°55.242 16.9408 4.079243 31.421027 -3.020363
2011-06-06 14:15:20 51°14.161 2°55.378 17.1461 0.085791 0.502647 -3.020363
2011-06-06 14:16:20 51°14.033 2°55.482 17.2188 0.061012 0.353377 -3.020363
2011-06-06 14:17:19 51°13.923 2°55.559 17.2864 0.052375 0.302069 -3.020363
2011-06-06 14:18:20 51°13.812 2°55.641 17.3317 0.047337 0.272343 -3.020363
2011-06-06 14:19:19 51°13.73 2°55.753 17.385 0.043944 0.252421 -3.020363
2011-06-06 14:20:20 51°13.677 2°55.87 17.4573 0.04158 0.238587 -3.020363
2011-06-06 14:21:19 51°13.648 2°55.965 17.494 0.039523 0.226588 -3.020363
2011-06-06 14:22:20 51°13.636 2°56.017 17.6253 0.037878 0.217014 -3.020363
2011-06-06 14:23:20 51°13.636 2°56.018 17.6996 0.036542 0.209255 -3.020363